createdAt,value
2018-10-21T00:00:29.380Z,21.27
2018-10-21T00:02:55.364Z,21.29
2018-10-21T00:05:21.287Z,21.29
2018-10-21T00:07:47.234Z,21.29
2018-10-21T00:10:13.267Z,21.29
2018-10-21T00:12:39.228Z,21.30
2018-10-21T00:15:05.257Z,21.29
2018-10-21T00:17:31.160Z,21.28
2018-10-21T00:19:57.135Z,21.27
2018-10-21T00:22:23.091Z,21.26
2018-10-21T00:24:49.130Z,21.26
2018-10-21T00:27:15.211Z,21.25
2018-10-21T00:29:41.064Z,21.26
2018-10-21T00:32:07.047Z,21.26
2018-10-21T00:34:32.992Z,21.25
2018-10-21T00:36:58.970Z,21.24
2018-10-21T00:39:24.925Z,21.26
2018-10-21T00:41:51.029Z,21.26
2018-10-21T00:44:16.980Z,21.25
2018-10-21T00:46:42.935Z,21.25
2018-10-21T00:49:08.925Z,21.26
2018-10-21T00:51:34.897Z,21.27
2018-10-21T00:54:00.867Z,21.28
2018-10-21T00:56:26.899Z,21.28
2018-10-21T00:58:52.979Z,21.28
2018-10-21T01:01:18.960Z,21.27
2018-10-21T01:03:44.921Z,21.26
2018-10-21T01:06:10.886Z,21.27
2018-10-21T01:08:36.893Z,21.26
2018-10-21T01:11:02.856Z,21.26
2018-10-21T01:13:28.800Z,21.26
2018-10-21T01:15:54.760Z,21.25
2018-10-21T01:18:20.727Z,21.24
2018-10-21T01:20:46.688Z,21.24
2018-10-21T01:23:12.636Z,21.24
2018-10-21T01:25:38.596Z,21.23
2018-10-21T01:28:04.547Z,21.25
2018-10-21T01:30:30.538Z,21.23
2018-10-21T01:32:56.496Z,21.23
2018-10-21T01:35:22.400Z,21.24
2018-10-21T01:37:48.433Z,21.25
2018-10-21T01:40:14.332Z,21.25
2018-10-21T01:42:40.275Z,21.28
2018-10-21T01:45:06.326Z,21.25
2018-10-21T01:47:32.284Z,21.25
2018-10-21T01:49:58.321Z,21.26
2018-10-21T01:52:24.307Z,21.25
2018-10-21T01:54:50.219Z,21.23
2018-10-21T01:57:16.308Z,21.22
2018-10-21T01:59:42.172Z,21.22
2018-10-21T02:02:08.141Z,21.22
2018-10-21T02:04:34.089Z,21.22
2018-10-21T02:07:00.103Z,21.23
2018-10-21T02:09:26.058Z,21.23
2018-10-21T02:11:52.015Z,21.22
2018-10-21T02:14:18.011Z,21.20
2018-10-21T02:16:43.917Z,21.20
2018-10-21T02:19:09.868Z,21.20
2018-10-21T02:21:35.813Z,21.19
2018-10-21T02:24:01.773Z,21.23
2018-10-21T02:26:27.765Z,21.22
2018-10-21T02:28:53.711Z,21.23
2018-10-21T02:31:19.779Z,21.22
2018-10-21T02:33:45.790Z,21.23
2018-10-21T02:36:11.685Z,21.25
2018-10-21T02:38:37.651Z,21.23
2018-10-21T02:41:03.639Z,21.20
2018-10-21T02:43:29.604Z,21.20
2018-10-21T02:45:55.738Z,21.21
2018-10-21T02:48:21.682Z,21.19
2018-10-21T02:50:47.631Z,21.19
2018-10-21T02:53:13.584Z,21.19
2018-10-21T02:55:39.537Z,21.19
2018-10-21T02:58:05.503Z,21.18
2018-10-21T03:00:31.495Z,21.17
2018-10-21T03:02:57.493Z,21.19
2018-10-21T03:05:23.420Z,21.17
2018-10-21T03:07:49.441Z,21.17
2018-10-21T03:10:15.387Z,21.17
2018-10-21T03:12:41.349Z,21.20
2018-10-21T03:15:07.326Z,21.18
2018-10-21T03:17:33.320Z,21.20
2018-10-21T03:19:59.296Z,21.20
2018-10-21T03:22:25.246Z,21.18
2018-10-21T03:24:51.194Z,21.19
2018-10-21T03:27:17.166Z,21.17
2018-10-21T03:29:43.117Z,21.16
2018-10-21T03:32:09.075Z,21.16
2018-10-21T03:34:35.030Z,21.16
2018-10-21T03:37:00.978Z,21.17
2018-10-21T03:39:27.012Z,21.17
2018-10-21T03:41:52.966Z,21.15
2018-10-21T03:44:18.927Z,21.16
2018-10-21T03:46:44.999Z,21.15
2018-10-21T03:49:10.975Z,21.16
2018-10-21T03:51:37.003Z,21.15
2018-10-21T03:54:02.996Z,21.13
2018-10-21T03:56:28.984Z,21.15
2018-10-21T03:58:54.945Z,21.15
2018-10-21T04:01:20.899Z,21.15
2018-10-21T04:03:46.941Z,21.16
2018-10-21T04:06:12.908Z,21.18
2018-10-21T04:08:38.862Z,21.16
2018-10-21T04:11:04.852Z,21.15
2018-10-21T04:13:30.800Z,21.13
2018-10-21T04:15:56.798Z,21.13
2018-10-21T04:18:22.977Z,21.12
2018-10-21T04:20:49.204Z,21.12
2018-10-21T04:23:15.147Z,21.12
2018-10-21T04:25:41.128Z,21.11
2018-10-21T04:28:07.219Z,21.13
2018-10-21T04:30:33.132Z,21.12
2018-10-21T04:32:59.090Z,21.12
2018-10-21T04:35:25.126Z,21.10
2018-10-21T04:37:51.145Z,21.10
2018-10-21T04:40:17.196Z,21.10
2018-10-21T04:42:43.227Z,21.10
2018-10-21T04:45:09.175Z,21.13
2018-10-21T04:47:35.119Z,21.12
2018-10-21T04:50:01.111Z,21.13
2018-10-21T04:52:27.073Z,21.13
2018-10-21T04:54:53.021Z,21.13
2018-10-21T04:57:18.968Z,21.12
2018-10-21T04:59:45.159Z,21.11
2018-10-21T05:02:11.133Z,21.11
2018-10-21T05:04:37.108Z,21.10
2018-10-21T05:07:03.299Z,21.10
2018-10-21T05:09:29.269Z,21.11
2018-10-21T05:11:55.239Z,21.11
2018-10-21T05:14:21.184Z,21.10
2018-10-21T05:16:47.208Z,21.09
2018-10-21T05:19:13.179Z,21.08
2018-10-21T05:21:39.129Z,21.09
2018-10-21T05:24:05.226Z,21.11
2018-10-21T05:26:31.099Z,21.13
2018-10-21T05:28:57.131Z,21.15
2018-10-21T05:31:23.126Z,21.16
2018-10-21T05:33:49.119Z,21.17
2018-10-21T05:36:15.085Z,21.18
2018-10-21T05:38:41.040Z,21.21
2018-10-21T05:41:07.080Z,21.19
2018-10-21T05:43:33.029Z,21.19
2018-10-21T05:45:59.040Z,21.20
2018-10-21T05:48:24.980Z,21.22
2018-10-21T05:50:50.933Z,21.21
2018-10-21T05:53:16.925Z,21.22
2018-10-21T05:55:42.883Z,21.23
2018-10-21T05:58:08.884Z,21.25
2018-10-21T06:00:34.807Z,21.25
2018-10-21T06:03:00.814Z,21.24
2018-10-21T06:05:26.723Z,21.24
2018-10-21T06:07:52.722Z,21.24
2018-10-21T06:10:18.753Z,21.23
2018-10-21T06:12:44.650Z,21.23
2018-10-21T06:15:10.672Z,21.23
2018-10-21T06:17:36.704Z,21.23
2018-10-21T06:20:02.683Z,21.24
2018-10-21T06:22:28.752Z,21.24
2018-10-21T06:24:54.792Z,21.23
2018-10-21T06:27:20.752Z,21.24
2018-10-21T06:29:46.732Z,21.24
2018-10-21T06:32:12.708Z,21.24
2018-10-21T06:34:38.692Z,21.25
2018-10-21T06:37:04.657Z,21.25
2018-10-21T06:39:30.619Z,21.27
2018-10-21T06:41:56.595Z,21.27
2018-10-21T06:44:22.549Z,21.27
2018-10-21T06:46:48.580Z,21.27
2018-10-21T06:49:14.573Z,21.27
2018-10-21T06:51:40.522Z,21.26
2018-10-21T06:54:06.535Z,21.26
2018-10-21T06:56:32.533Z,21.26
2018-10-21T06:58:58.480Z,21.26
2018-10-21T07:01:24.512Z,21.27
2018-10-21T07:03:50.473Z,21.27
2018-10-21T07:06:16.489Z,21.27
2018-10-21T07:08:42.443Z,21.27
2018-10-21T07:11:08.524Z,21.32
2018-10-21T07:13:34.469Z,21.31
2018-10-21T07:16:00.527Z,21.26
2018-10-21T07:18:26.354Z,21.26
2018-10-21T07:20:52.308Z,21.27
2018-10-21T07:23:18.292Z,21.26
2018-10-21T07:25:44.261Z,21.25
2018-10-21T07:28:10.267Z,21.25
2018-10-21T07:30:36.177Z,21.24
2018-10-21T07:33:02.119Z,21.24
2018-10-21T07:35:28.076Z,21.25
2018-10-21T07:37:54.201Z,21.26
2018-10-21T07:40:20.215Z,21.26
2018-10-21T07:42:46.142Z,21.27
2018-10-21T07:45:12.090Z,21.25
2018-10-21T07:47:38.064Z,21.25
2018-10-21T07:50:04.030Z,21.26
2018-10-21T07:52:30.008Z,21.28
2018-10-21T07:54:56.047Z,21.27
2018-10-21T07:57:22.012Z,21.28
2018-10-21T07:59:47.987Z,21.28
2018-10-21T08:02:13.931Z,21.28
2018-10-21T08:04:39.894Z,21.28
2018-10-21T08:07:05.853Z,21.27
2018-10-21T08:09:31.804Z,21.27
2018-10-21T08:11:57.764Z,21.28
2018-10-21T08:14:23.763Z,21.28
2018-10-21T08:16:49.732Z,21.27
2018-10-21T08:19:15.680Z,21.29
2018-10-21T08:21:41.629Z,21.27
2018-10-21T08:24:07.581Z,21.28
2018-10-21T08:26:33.547Z,21.29
2018-10-21T08:28:59.503Z,21.29
2018-10-21T08:31:25.536Z,21.30
2018-10-21T08:33:51.504Z,21.29
2018-10-21T08:36:17.505Z,21.30
2018-10-21T08:38:43.531Z,21.30
2018-10-21T08:41:09.477Z,21.32
2018-10-21T08:43:35.504Z,21.33
2018-10-21T08:46:01.545Z,21.33
2018-10-21T08:48:27.435Z,21.32
2018-10-21T08:50:53.401Z,21.33
2018-10-21T08:53:19.553Z,21.33
2018-10-21T08:55:45.536Z,21.32
2018-10-21T08:58:11.672Z,21.31
2018-10-21T09:00:37.527Z,21.31
2018-10-21T09:03:03.508Z,21.31
2018-10-21T09:05:29.483Z,21.29
2018-10-21T09:07:55.477Z,21.30
2018-10-21T09:10:21.523Z,21.32
2018-10-21T09:12:47.431Z,21.32
2018-10-21T09:15:13.465Z,21.32
2018-10-21T09:17:39.391Z,21.31
2018-10-21T09:20:05.340Z,21.32
2018-10-21T09:22:31.293Z,21.32
2018-10-21T09:24:57.361Z,21.32
2018-10-21T09:27:23.281Z,21.33
2018-10-21T09:29:50.340Z,21.34
2018-10-21T09:32:16.307Z,21.35
2018-10-21T09:34:42.296Z,21.35
2018-10-21T09:37:08.332Z,21.34
2018-10-21T09:39:34.261Z,21.35
2018-10-21T09:42:00.254Z,21.35
2018-10-21T09:44:26.207Z,21.35
2018-10-21T09:46:52.168Z,21.35
2018-10-21T09:49:18.185Z,21.34
2018-10-21T09:51:44.116Z,21.33
2018-10-21T09:54:10.075Z,21.34
2018-10-21T09:56:36.044Z,21.34
2018-10-21T09:59:02.009Z,21.33
2018-10-21T10:01:28.038Z,21.33
2018-10-21T10:03:54.072Z,21.34
2018-10-21T10:06:19.944Z,21.34
2018-10-21T10:08:45.937Z,21.34
2018-10-21T10:11:11.967Z,21.33
2018-10-21T10:13:37.951Z,21.36
2018-10-21T10:16:03.956Z,21.38
2018-10-21T10:18:29.907Z,21.39
2018-10-21T10:20:55.882Z,21.38
2018-10-21T10:23:21.887Z,21.38
2018-10-21T10:25:47.929Z,21.37
2018-10-21T10:28:13.935Z,21.38
2018-10-21T10:30:39.831Z,21.37
2018-10-21T10:33:05.936Z,21.37
2018-10-21T10:35:32.247Z,21.37
2018-10-21T10:37:58.209Z,21.37
2018-10-21T10:40:24.186Z,21.38
2018-10-21T10:42:50.223Z,21.37
2018-10-21T10:45:16.241Z,21.40
2018-10-21T10:47:42.275Z,21.40
2018-10-21T10:50:08.276Z,21.40
2018-10-21T10:52:34.409Z,21.40
2018-10-21T10:55:00.406Z,21.40
2018-10-21T10:57:26.320Z,21.40
2018-10-21T10:59:52.427Z,21.41
2018-10-21T11:02:18.343Z,21.44
2018-10-21T11:04:44.332Z,21.46
2018-10-21T11:07:10.391Z,21.48
2018-10-21T11:09:36.296Z,21.46
2018-10-21T11:12:02.288Z,21.48
2018-10-21T11:14:28.240Z,21.45
2018-10-21T11:16:54.626Z,21.44
2018-10-21T11:19:20.657Z,21.44
2018-10-21T11:21:46.698Z,21.44
2018-10-21T11:24:12.603Z,21.43
2018-10-21T11:26:38.623Z,21.43
2018-10-21T11:29:04.644Z,21.44
2018-10-21T11:31:30.670Z,21.45
2018-10-21T11:33:57.748Z,21.45
2018-10-21T11:36:23.731Z,21.46
2018-10-21T11:38:49.748Z,21.46
2018-10-21T11:41:15.808Z,21.46
2018-10-21T11:43:41.793Z,21.49
2018-10-21T11:46:07.855Z,21.49
2018-10-21T11:48:33.809Z,21.50
2018-10-21T11:50:59.829Z,21.53
2018-10-21T11:53:26.872Z,21.53
2018-10-21T11:55:52.841Z,21.53
2018-10-21T11:58:18.900Z,21.53
2018-10-21T12:00:44.827Z,21.51
2018-10-21T12:03:10.912Z,21.51
2018-10-21T12:05:36.917Z,21.52
2018-10-21T12:08:02.875Z,21.53
2018-10-21T12:10:28.841Z,21.53
2018-10-21T12:12:54.937Z,21.52
2018-10-21T12:15:20.889Z,21.55
2018-10-21T12:17:46.869Z,21.55
2018-10-21T12:20:12.837Z,21.53
2018-10-21T12:22:38.875Z,21.55
2018-10-21T12:25:04.844Z,21.56
2018-10-21T12:27:30.785Z,21.57
2018-10-21T12:29:56.740Z,21.58
2018-10-21T12:32:22.748Z,21.62
2018-10-21T12:34:48.707Z,21.62
2018-10-21T12:37:14.740Z,21.65
2018-10-21T12:39:40.734Z,21.65
2018-10-21T12:42:06.779Z,21.64
2018-10-21T12:44:32.727Z,21.62
2018-10-21T12:46:58.719Z,21.61
2018-10-21T12:49:24.740Z,21.60
2018-10-21T12:51:50.690Z,21.62
2018-10-21T12:54:16.806Z,21.60
2018-10-21T12:56:42.623Z,21.64
2018-10-21T12:59:08.590Z,21.62
2018-10-21T13:01:34.563Z,21.63
2018-10-21T13:04:00.572Z,21.64
2018-10-21T13:06:26.520Z,21.62
2018-10-21T13:08:52.547Z,21.65
2018-10-21T13:11:18.730Z,21.65
2018-10-21T13:13:44.669Z,21.65
2018-10-21T13:16:10.702Z,21.66
2018-10-21T13:18:36.578Z,21.64
2018-10-21T13:21:02.525Z,21.67
2018-10-21T13:23:28.490Z,21.67
2018-10-21T13:25:54.460Z,21.68
2018-10-21T13:28:20.482Z,21.69
2018-10-21T13:30:46.388Z,21.67
2018-10-21T13:33:12.384Z,21.65
2018-10-21T13:35:38.339Z,21.64
2018-10-21T13:38:04.409Z,21.65
2018-10-21T13:40:30.450Z,21.64
2018-10-21T13:42:56.464Z,21.65
2018-10-21T13:45:22.397Z,21.66
2018-10-21T13:47:48.383Z,21.64
2018-10-21T13:50:14.622Z,21.62
2018-10-21T13:52:40.641Z,21.60
2018-10-21T13:55:06.598Z,21.62
2018-10-21T13:57:32.576Z,21.61
2018-10-21T13:59:58.574Z,21.62
2018-10-21T14:02:24.537Z,21.64
2018-10-21T14:04:50.525Z,21.67
2018-10-21T14:07:16.572Z,21.69
2018-10-21T14:09:42.509Z,21.69
2018-10-21T14:12:08.474Z,21.69
2018-10-21T14:14:34.467Z,21.69
2018-10-21T14:17:00.516Z,21.69
2018-10-21T14:19:26.479Z,21.67
2018-10-21T14:21:52.459Z,21.66
2018-10-21T14:24:18.503Z,21.66
2018-10-21T14:26:44.479Z,21.64
2018-10-21T14:29:10.474Z,21.64
2018-10-21T14:31:36.436Z,21.62
2018-10-21T14:34:02.425Z,21.65
2018-10-21T14:36:28.400Z,21.65
2018-10-21T14:38:54.383Z,21.65
2018-10-21T14:41:20.324Z,21.64
2018-10-21T14:43:46.296Z,21.62
2018-10-21T14:46:12.304Z,21.64
2018-10-21T14:48:38.220Z,21.66
2018-10-21T14:51:04.191Z,21.66
2018-10-21T14:53:30.174Z,21.68
2018-10-21T14:55:56.188Z,21.66
2018-10-21T14:58:22.094Z,21.66
2018-10-21T15:00:48.042Z,21.64
2018-10-21T15:03:14.084Z,21.65
2018-10-21T15:05:40.003Z,21.64
2018-10-21T15:08:06.085Z,21.65
2018-10-21T15:10:32.013Z,21.61
2018-10-21T15:12:57.977Z,21.58
2018-10-21T15:15:23.995Z,21.59
2018-10-21T15:17:49.928Z,21.58
2018-10-21T15:20:16.063Z,21.58
2018-10-21T15:22:42.029Z,21.60
2018-10-21T15:25:08.016Z,21.60
2018-10-21T15:27:34.008Z,21.60
2018-10-21T15:30:00.080Z,21.60
2018-10-21T15:32:25.998Z,21.58
2018-10-21T15:34:52.017Z,21.58
2018-10-21T15:37:17.916Z,21.59
2018-10-21T15:39:43.951Z,21.62
2018-10-21T15:42:09.871Z,21.64
2018-10-21T15:44:35.824Z,21.65
2018-10-21T15:47:01.786Z,21.65
2018-10-21T15:49:27.748Z,21.62
2018-10-21T15:51:53.788Z,21.61
2018-10-21T15:54:19.718Z,21.60
2018-10-21T15:56:45.798Z,21.62
2018-10-21T15:59:11.752Z,21.61
2018-10-21T16:01:37.704Z,21.61
2018-10-21T16:04:03.681Z,21.64
2018-10-21T16:06:29.651Z,21.62
2018-10-21T16:08:55.627Z,21.62
2018-10-21T16:11:21.753Z,21.62
2018-10-21T16:13:47.721Z,21.61
2018-10-21T16:16:13.757Z,21.62
2018-10-21T16:18:39.659Z,21.61
2018-10-21T16:21:05.677Z,21.62
2018-10-21T16:23:31.651Z,21.64
2018-10-21T16:25:57.928Z,21.68
2018-10-21T16:28:23.996Z,21.67
2018-10-21T16:30:49.880Z,21.67
2018-10-21T16:33:15.949Z,21.67
2018-10-21T16:35:42.046Z,21.64
2018-10-21T16:38:08.007Z,21.64
2018-10-21T16:40:34.015Z,21.64
2018-10-21T16:43:00.036Z,21.62
2018-10-21T16:45:26.727Z,21.62
2018-10-21T16:47:52.849Z,21.63
2018-10-21T16:50:18.712Z,21.64
2018-10-21T16:52:44.739Z,21.61
2018-10-21T16:55:10.719Z,21.62
2018-10-21T16:57:36.796Z,21.63
2018-10-21T17:00:02.844Z,21.63
2018-10-21T17:02:28.792Z,21.60
2018-10-21T17:04:54.783Z,21.61
2018-10-21T17:07:20.770Z,21.62
2018-10-21T17:09:47.141Z,21.64
2018-10-21T17:12:12.722Z,21.66
2018-10-21T17:14:38.792Z,21.66
2018-10-21T17:17:04.790Z,21.67
2018-10-21T17:19:30.707Z,21.65
2018-10-21T17:21:56.725Z,21.64
2018-10-21T17:24:23.677Z,21.64
2018-10-21T17:26:49.625Z,21.57
2018-10-21T17:29:15.572Z,21.57
2018-10-21T17:31:41.539Z,21.57
2018-10-21T17:34:07.555Z,21.55
2018-10-21T17:36:33.517Z,21.58
2018-10-21T17:38:59.468Z,21.56
2018-10-21T17:41:25.454Z,21.56
2018-10-21T17:43:51.453Z,21.56
2018-10-21T17:46:17.569Z,21.56
2018-10-21T17:48:43.505Z,21.56
2018-10-21T17:51:09.513Z,21.57
2018-10-21T17:53:35.541Z,21.56
2018-10-21T17:56:01.536Z,21.58
2018-10-21T17:58:27.675Z,21.59
2018-10-21T18:00:53.621Z,21.61
2018-10-21T18:03:19.583Z,21.60
2018-10-21T18:05:45.668Z,21.61
2018-10-21T18:08:11.622Z,21.60
2018-10-21T18:10:37.613Z,21.60
2018-10-21T18:13:03.635Z,21.58
2018-10-21T18:15:29.597Z,21.60
2018-10-21T18:17:55.589Z,21.60
2018-10-21T18:20:21.568Z,21.60
2018-10-21T18:22:47.549Z,21.60
2018-10-21T18:25:13.628Z,21.59
2018-10-21T18:27:39.474Z,21.60
2018-10-21T18:30:05.436Z,21.60
2018-10-21T18:32:31.434Z,21.59
2018-10-21T18:34:57.397Z,21.59
2018-10-21T18:37:23.383Z,21.60
2018-10-21T18:39:49.347Z,21.58
2018-10-21T18:42:15.327Z,21.59
2018-10-21T18:44:41.288Z,21.60
2018-10-21T18:47:07.344Z,21.60
2018-10-21T18:49:33.292Z,21.60
2018-10-21T18:51:59.328Z,21.60
2018-10-21T18:54:25.291Z,21.59
2018-10-21T18:56:51.258Z,21.59
2018-10-21T18:59:17.282Z,21.60
2018-10-21T19:01:43.284Z,21.60
2018-10-21T19:04:09.279Z,21.58
2018-10-21T19:06:35.234Z,21.58
2018-10-21T19:09:01.234Z,21.58
2018-10-21T19:11:27.219Z,21.58
2018-10-21T19:13:53.195Z,21.54
2018-10-21T19:16:19.322Z,21.55
2018-10-21T19:18:45.197Z,21.56
2018-10-21T19:21:11.157Z,21.58
2018-10-21T19:23:37.140Z,21.56
2018-10-21T19:26:03.091Z,21.57
2018-10-21T19:28:29.056Z,21.55
2018-10-21T19:30:55.023Z,21.56
2018-10-21T19:33:20.979Z,21.58
2018-10-21T19:35:46.939Z,21.58
2018-10-21T19:38:12.914Z,21.58
2018-10-21T19:40:38.928Z,21.58
2018-10-21T19:43:04.990Z,21.57
2018-10-21T19:45:30.890Z,21.56
2018-10-21T19:47:56.885Z,21.59
2018-10-21T19:50:22.876Z,21.58
2018-10-21T19:52:48.898Z,21.58
2018-10-21T19:55:15.003Z,21.56
2018-10-21T19:57:40.836Z,21.55
2018-10-21T20:00:06.796Z,21.53
2018-10-21T20:02:32.989Z,21.49
2018-10-21T20:04:58.962Z,21.49
2018-10-21T20:07:24.931Z,21.44
2018-10-21T20:09:50.911Z,21.42
2018-10-21T20:12:16.951Z,21.42
2018-10-21T20:14:42.852Z,21.43
2018-10-21T20:17:08.851Z,21.45
2018-10-21T20:19:34.792Z,21.46
2018-10-21T20:22:00.825Z,21.47
2018-10-21T20:24:26.744Z,21.44
2018-10-21T20:26:52.780Z,21.42
2018-10-21T20:29:18.752Z,21.40
2018-10-21T20:31:44.751Z,21.40
2018-10-21T20:34:10.806Z,21.37
2018-10-21T20:36:36.861Z,21.37
2018-10-21T20:39:02.797Z,21.36
2018-10-21T20:41:28.794Z,21.35
2018-10-21T20:43:54.762Z,21.34
2018-10-21T20:46:20.740Z,21.33
2018-10-21T20:48:46.700Z,21.31
2018-10-21T20:51:12.747Z,21.30
2018-10-21T20:53:38.638Z,21.30
2018-10-21T20:56:04.631Z,21.27
2018-10-21T20:58:30.622Z,21.30
2018-10-21T21:00:56.604Z,21.31
2018-10-21T21:03:22.565Z,21.34
2018-10-21T21:05:48.530Z,21.35
2018-10-21T21:08:14.518Z,21.35
2018-10-21T21:10:40.455Z,21.33
2018-10-21T21:13:06.757Z,21.33
2018-10-21T21:15:32.800Z,21.34
2018-10-21T21:17:58.772Z,21.32
2018-10-21T21:20:24.764Z,21.32
2018-10-21T21:22:50.708Z,21.31
2018-10-21T21:25:16.675Z,21.29
2018-10-21T21:27:42.641Z,21.28
2018-10-21T21:30:08.675Z,21.27
2018-10-21T21:32:34.597Z,21.28
2018-10-21T21:35:00.546Z,21.26
2018-10-21T21:37:26.488Z,21.24
2018-10-21T21:39:52.461Z,21.23
2018-10-21T21:42:19.526Z,21.26
2018-10-21T21:44:45.412Z,21.26
2018-10-21T21:47:11.436Z,21.28
2018-10-21T21:49:37.390Z,21.28
2018-10-21T21:52:03.404Z,21.28
2018-10-21T21:54:29.305Z,21.30
2018-10-21T21:56:55.260Z,21.29
2018-10-21T21:59:21.217Z,21.30
2018-10-21T22:01:47.210Z,21.29
2018-10-21T22:04:13.218Z,21.29
2018-10-21T22:06:39.171Z,21.28
2018-10-21T22:09:05.182Z,21.26
2018-10-21T22:11:31.106Z,21.25
2018-10-21T22:13:57.063Z,21.26
2018-10-21T22:16:23.011Z,21.25
2018-10-21T22:18:48.977Z,21.24
2018-10-21T22:21:14.923Z,21.24
2018-10-21T22:23:40.890Z,21.23
2018-10-21T22:26:06.883Z,21.22
2018-10-21T22:28:32.823Z,21.20
2018-10-21T22:30:58.802Z,21.20
2018-10-21T22:33:24.853Z,21.20
2018-10-21T22:35:51.050Z,21.23
2018-10-21T22:38:17.157Z,21.25
2018-10-21T22:40:43.059Z,21.26
2018-10-21T22:43:09.026Z,21.24
2018-10-21T22:45:34.992Z,21.23
2018-10-21T22:48:00.994Z,21.21
2018-10-21T22:50:26.905Z,21.19
2018-10-21T22:52:52.944Z,21.18
2018-10-21T22:55:18.907Z,21.15
2018-10-21T22:57:44.892Z,21.16
2018-10-21T23:00:11.001Z,21.16
2018-10-21T23:02:36.900Z,21.16
2018-10-21T23:05:02.856Z,21.15
2018-10-21T23:07:29.092Z,21.17
2018-10-21T23:09:55.084Z,21.16
2018-10-21T23:12:21.014Z,21.16
2018-10-21T23:14:46.976Z,21.15
2018-10-21T23:17:12.956Z,21.15
2018-10-21T23:19:38.902Z,21.17
2018-10-21T23:22:04.959Z,21.16
2018-10-21T23:24:30.864Z,21.17
2018-10-21T23:26:56.861Z,21.17
2018-10-21T23:29:22.808Z,21.16
2018-10-21T23:31:48.787Z,21.15
2018-10-21T23:34:14.804Z,21.13
2018-10-21T23:36:40.713Z,21.15
2018-10-21T23:39:06.723Z,21.15
2018-10-21T23:41:32.696Z,21.15
2018-10-21T23:43:58.680Z,21.16
2018-10-21T23:46:24.698Z,21.15
2018-10-21T23:48:50.651Z,21.15
2018-10-21T23:51:16.601Z,21.13
2018-10-21T23:53:42.554Z,21.13
2018-10-21T23:56:08.496Z,21.12
2018-10-21T23:58:34.501Z,21.12
